sensor_id;sensor_type;location;lat;lon;timestamp;temperature;humidity
39347;DHT22;26262;49.836;6.632;2023-02-15T00:01:11;0.70;99.90
39347;DHT22;26262;49.836;6.632;2023-02-15T00:03:37;0.70;99.90
39347;DHT22;26262;49.836;6.632;2023-02-15T00:06:03;0.70;99.90
39347;DHT22;26262;49.836;6.632;2023-02-15T00:08:29;0.60;99.90
39347;DHT22;26262;49.836;6.632;2023-02-15T00:13:34;0.50;99.90
39347;DHT22;26262;49.836;6.632;2023-02-15T00:16:06;0.40;99.90
39347;DHT22;26262;49.836;6.632;2023-02-15T00:18:32;0.20;99.90
39347;DHT22;26262;49.836;6.632;2023-02-15T00:20:57;-0.10;99.90
39347;DHT22;26262;49.836;6.632;2023-02-15T00:23:23;0.00;99.90
39347;DHT22;26262;49.836;6.632;2023-02-15T00:25:49;0.10;99.90
39347;DHT22;26262;49.836;6.632;2023-02-15T00:28:15;0.20;99.90
39347;DHT22;26262;49.836;6.632;2023-02-15T00:30:41;0.30;99.90
39347;DHT22;26262;49.836;6.632;2023-02-15T00:33:06;0.40;99.90
39347;DHT22;26262;49.836;6.632;2023-02-15T00:35:32;0.40;99.90
39347;DHT22;26262;49.836;6.632;2023-02-15T00:37:57;0.40;99.90
39347;DHT22;26262;49.836;6.632;2023-02-15T00:40:23;0.40;99.90
39347;DHT22;26262;49.836;6.632;2023-02-15T00:42:48;0.50;99.90
39347;DHT22;26262;49.836;6.632;2023-02-15T00:45:14;0.50;99.90
39347;DHT22;26262;49.836;6.632;2023-02-15T00:47:39;0.30;99.90
39347;DHT22;26262;49.836;6.632;2023-02-15T00:50:05;0.40;99.90
39347;DHT22;26262;49.836;6.632;2023-02-15T00:52:31;0.30;99.90
39347;DHT22;26262;49.836;6.632;2023-02-15T00:54:57;0.40;99.90
39347;DHT22;26262;49.836;6.632;2023-02-15T00:57:22;0.40;99.90
39347;DHT22;26262;49.836;6.632;2023-02-15T00:59:48;0.30;99.90
39347;DHT22;26262;49.836;6.632;2023-02-15T01:02:13;0.20;99.90
39347;DHT22;26262;49.836;6.632;2023-02-15T01:04:39;0.20;99.90
39347;DHT22;26262;49.836;6.632;2023-02-15T01:07:04;0.20;99.90
39347;DHT22;26262;49.836;6.632;2023-02-15T01:09:30;0.20;99.90
39347;DHT22;26262;49.836;6.632;2023-02-15T01:11:55;0.20;99.90
39347;DHT22;26262;49.836;6.632;2023-02-15T01:14:21;0.30;99.90
39347;DHT22;26262;49.836;6.632;2023-02-15T01:16:46;0.30;99.90
39347;DHT22;26262;49.836;6.632;2023-02-15T01:19:12;0.30;99.90
39347;DHT22;26262;49.836;6.632;2023-02-15T01:21:38;0.30;99.90
39347;DHT22;26262;49.836;6.632;2023-02-15T01:24:13;0.30;99.90
39347;DHT22;26262;49.836;6.632;2023-02-15T01:26:39;0.30;99.90
39347;DHT22;26262;49.836;6.632;2023-02-15T01:29:04;0.30;99.90
39347;DHT22;26262;49.836;6.632;2023-02-15T01:31:30;0.30;99.90
39347;DHT22;26262;49.836;6.632;2023-02-15T01:33:55;0.30;99.90
39347;DHT22;26262;49.836;6.632;2023-02-15T01:36:21;0.30;99.90
39347;DHT22;26262;49.836;6.632;2023-02-15T01:38:46;0.30;99.90
39347;DHT22;26262;49.836;6.632;2023-02-15T01:41:12;0.20;99.90
39347;DHT22;26262;49.836;6.632;2023-02-15T01:43:57;0.20;99.90
39347;DHT22;26262;49.836;6.632;2023-02-15T01:46:37;0.20;99.90
39347;DHT22;26262;49.836;6.632;2023-02-15T01:49:10;0.20;99.90
39347;DHT22;26262;49.836;6.632;2023-02-15T01:51:38;0.20;99.90
39347;DHT22;26262;49.836;6.632;2023-02-15T01:54:06;0.20;99.90
39347;DHT22;26262;49.836;6.632;2023-02-15T01:56:36;0.10;99.90
39347;DHT22;26262;49.836;6.632;2023-02-15T01:59:21;0.10;99.90
39347;DHT22;26262;49.836;6.632;2023-02-15T02:01:49;0.10;99.90
39347;DHT22;26262;49.836;6.632;2023-02-15T02:04:17;0.10;99.90
39347;DHT22;26262;49.836;6.632;2023-02-15T02:06:46;-0.20;99.90
39347;DHT22;26262;49.836;6.632;2023-02-15T02:09:13;-0.10;99.90
39347;DHT22;26262;49.836;6.632;2023-02-15T02:11:40;0.00;99.90
39347;DHT22;26262;49.836;6.632;2023-02-15T02:14:06;0.00;99.90
39347;DHT22;26262;49.836;6.632;2023-02-15T02:16:40;0.00;99.90
39347;DHT22;26262;49.836;6.632;2023-02-15T02:22:08;0.10;99.90
39347;DHT22;26262;49.836;6.632;2023-02-15T02:33:09;0.00;99.90
39347;DHT22;26262;49.836;6.632;2023-02-15T02:35:44;0.00;99.90
39347;DHT22;26262;49.836;6.632;2023-02-15T02:38:36;0.00;99.90
39347;DHT22;26262;49.836;6.632;2023-02-15T02:46:28;0.10;99.90
39347;DHT22;26262;49.836;6.632;2023-02-15T02:48:55;0.20;99.90
39347;DHT22;26262;49.836;6.632;2023-02-15T02:51:22;0.10;99.90
39347;DHT22;26262;49.836;6.632;2023-02-15T02:53:54;0.20;99.90
39347;DHT22;26262;49.836;6.632;2023-02-15T02:56:28;0.10;99.90
39347;DHT22;26262;49.836;6.632;2023-02-15T02:59:16;0.10;99.90
39347;DHT22;26262;49.836;6.632;2023-02-15T03:02:03;0.00;99.90
39347;DHT22;26262;49.836;6.632;2023-02-15T03:04:35;-0.10;99.90
39347;DHT22;26262;49.836;6.632;2023-02-15T03:07:06;0.00;99.90
39347;DHT22;26262;49.836;6.632;2023-02-15T03:09:45;0.10;99.90
39347;DHT22;26262;49.836;6.632;2023-02-15T03:12:19;0.00;99.90
39347;DHT22;26262;49.836;6.632;2023-02-15T03:14:49;0.10;99.90
39347;DHT22;26262;49.836;6.632;2023-02-15T03:17:19;0.00;99.90
39347;DHT22;26262;49.836;6.632;2023-02-15T03:19:48;0.00;99.90
39347;DHT22;26262;49.836;6.632;2023-02-15T03:27:38;0.10;99.90
39347;DHT22;26262;49.836;6.632;2023-02-15T03:30:06;0.20;99.90
39347;DHT22;26262;49.836;6.632;2023-02-15T03:32:33;0.20;99.90
39347;DHT22;26262;49.836;6.632;2023-02-15T03:35:00;0.30;99.90
39347;DHT22;26262;49.836;6.632;2023-02-15T03:37:41;0.30;99.90
39347;DHT22;26262;49.836;6.632;2023-02-15T03:40:14;0.30;99.90
39347;DHT22;26262;49.836;6.632;2023-02-15T03:43:24;0.40;99.90
39347;DHT22;26262;49.836;6.632;2023-02-15T03:45:57;0.40;99.90
39347;DHT22;26262;49.836;6.632;2023-02-15T03:48:34;0.30;99.90
39347;DHT22;26262;49.836;6.632;2023-02-15T03:51:06;0.00;99.90
39347;DHT22;26262;49.836;6.632;2023-02-15T03:53:52;0.10;99.90
39347;DHT22;26262;49.836;6.632;2023-02-15T03:56:19;0.10;99.90
39347;DHT22;26262;49.836;6.632;2023-02-15T03:58:45;0.20;99.90
39347;DHT22;26262;49.836;6.632;2023-02-15T04:01:44;0.30;99.90
39347;DHT22;26262;49.836;6.632;2023-02-15T04:04:30;0.10;99.90
39347;DHT22;26262;49.836;6.632;2023-02-15T04:06:57;-0.10;99.90
39347;DHT22;26262;49.836;6.632;2023-02-15T04:09:22;-0.10;99.90
39347;DHT22;26262;49.836;6.632;2023-02-15T04:12:06;0.10;99.90
39347;DHT22;26262;49.836;6.632;2023-02-15T04:14:32;-0.10;99.90
39347;DHT22;26262;49.836;6.632;2023-02-15T04:17:16;-0.20;99.90
39347;DHT22;26262;49.836;6.632;2023-02-15T04:19:42;-0.10;99.90
39347;DHT22;26262;49.836;6.632;2023-02-15T04:22:26;-0.10;99.90
39347;DHT22;26262;49.836;6.632;2023-02-15T04:25:10;-0.10;99.90
39347;DHT22;26262;49.836;6.632;2023-02-15T04:27:37;-0.30;99.90
39347;DHT22;26262;49.836;6.632;2023-02-15T04:30:03;-0.20;99.90
39347;DHT22;26262;49.836;6.632;2023-02-15T04:32:28;-0.10;99.90
39347;DHT22;26262;49.836;6.632;2023-02-15T04:34:54;-0.10;99.90
39347;DHT22;26262;49.836;6.632;2023-02-15T04:37:19;-0.20;99.90
39347;DHT22;26262;49.836;6.632;2023-02-15T04:39:45;0.00;99.90
39347;DHT22;26262;49.836;6.632;2023-02-15T04:42:11;0.10;99.90
39347;DHT22;26262;49.836;6.632;2023-02-15T04:44:36;0.20;99.90
39347;DHT22;26262;49.836;6.632;2023-02-15T04:47:02;0.20;99.90
39347;DHT22;26262;49.836;6.632;2023-02-15T04:49:27;0.20;99.90
39347;DHT22;26262;49.836;6.632;2023-02-15T04:51:53;0.20;99.90
39347;DHT22;26262;49.836;6.632;2023-02-15T04:54:18;0.20;99.90
39347;DHT22;26262;49.836;6.632;2023-02-15T04:56:44;0.20;99.90
39347;DHT22;26262;49.836;6.632;2023-02-15T04:59:10;0.10;99.90
39347;DHT22;26262;49.836;6.632;2023-02-15T05:01:36;0.10;99.90
39347;DHT22;26262;49.836;6.632;2023-02-15T05:04:02;0.10;99.90
39347;DHT22;26262;49.836;6.632;2023-02-15T05:06:29;0.00;99.90
39347;DHT22;26262;49.836;6.632;2023-02-15T05:08:54;0.00;99.90
39347;DHT22;26262;49.836;6.632;2023-02-15T05:11:20;0.00;99.90
39347;DHT22;26262;49.836;6.632;2023-02-15T05:13:46;0.00;99.90
39347;DHT22;26262;49.836;6.632;2023-02-15T05:16:11;0.00;99.90
39347;DHT22;26262;49.836;6.632;2023-02-15T05:18:37;0.10;99.90
39347;DHT22;26262;49.836;6.632;2023-02-15T05:21:02;0.20;99.90
39347;DHT22;26262;49.836;6.632;2023-02-15T05:23:28;0.20;99.90
39347;DHT22;26262;49.836;6.632;2023-02-15T05:25:54;0.30;99.90
39347;DHT22;26262;49.836;6.632;2023-02-15T05:28:38;0.40;99.90
39347;DHT22;26262;49.836;6.632;2023-02-15T05:31:12;0.10;99.90
39347;DHT22;26262;49.836;6.632;2023-02-15T05:33:38;0.20;99.90
39347;DHT22;26262;49.836;6.632;2023-02-15T05:36:05;0.00;99.90
39347;DHT22;26262;49.836;6.632;2023-02-15T05:38:31;-0.20;99.90
39347;DHT22;26262;49.836;6.632;2023-02-15T05:40:57;-0.10;99.90
39347;DHT22;26262;49.836;6.632;2023-02-15T05:43:22;-0.10;99.90
39347;DHT22;26262;49.836;6.632;2023-02-15T05:45:49;0.00;99.90
39347;DHT22;26262;49.836;6.632;2023-02-15T05:48:16;-0.10;99.90
39347;DHT22;26262;49.836;6.632;2023-02-15T05:50:42;-0.30;99.90
39347;DHT22;26262;49.836;6.632;2023-02-15T05:53:07;-0.40;99.90
39347;DHT22;26262;49.836;6.632;2023-02-15T05:55:33;-0.50;99.90
39347;DHT22;26262;49.836;6.632;2023-02-15T05:57:58;-0.50;99.90
39347;DHT22;26262;49.836;6.632;2023-02-15T06:00:24;-0.60;99.90
39347;DHT22;26262;49.836;6.632;2023-02-15T06:02:50;-0.50;99.90
39347;DHT22;26262;49.836;6.632;2023-02-15T06:05:16;-0.30;99.90
39347;DHT22;26262;49.836;6.632;2023-02-15T06:07:44;-0.30;99.90
39347;DHT22;26262;49.836;6.632;2023-02-15T06:10:10;-0.30;99.90
39347;DHT22;26262;49.836;6.632;2023-02-15T06:12:36;-0.20;99.90
39347;DHT22;26262;49.836;6.632;2023-02-15T06:15:03;-0.10;99.90
39347;DHT22;26262;49.836;6.632;2023-02-15T06:17:28;-0.10;99.90
39347;DHT22;26262;49.836;6.632;2023-02-15T06:19:54;-0.30;99.90
39347;DHT22;26262;49.836;6.632;2023-02-15T06:22:19;-0.40;99.90
39347;DHT22;26262;49.836;6.632;2023-02-15T06:24:46;-0.60;99.90
39347;DHT22;26262;49.836;6.632;2023-02-15T06:27:11;-0.50;99.90
39347;DHT22;26262;49.836;6.632;2023-02-15T06:29:37;-0.60;99.90
39347;DHT22;26262;49.836;6.632;2023-02-15T06:32:03;-0.60;99.90
39347;DHT22;26262;49.836;6.632;2023-02-15T06:34:29;-0.50;99.90
39347;DHT22;26262;49.836;6.632;2023-02-15T06:36:54;-0.60;99.90
39347;DHT22;26262;49.836;6.632;2023-02-15T06:39:20;-0.50;99.90
39347;DHT22;26262;49.836;6.632;2023-02-15T06:41:45;-0.40;99.90
39347;DHT22;26262;49.836;6.632;2023-02-15T06:44:11;-0.50;99.90
39347;DHT22;26262;49.836;6.632;2023-02-15T06:46:36;-0.70;99.90
39347;DHT22;26262;49.836;6.632;2023-02-15T06:49:02;-0.60;99.90
39347;DHT22;26262;49.836;6.632;2023-02-15T06:51:27;-0.60;99.90
39347;DHT22;26262;49.836;6.632;2023-02-15T06:53:53;-0.60;99.90
39347;DHT22;26262;49.836;6.632;2023-02-15T06:56:18;-0.70;99.90
39347;DHT22;26262;49.836;6.632;2023-02-15T06:58:44;-0.70;99.90
39347;DHT22;26262;49.836;6.632;2023-02-15T07:01:11;-0.70;99.90
39347;DHT22;26262;49.836;6.632;2023-02-15T07:03:37;-0.60;99.90
39347;DHT22;26262;49.836;6.632;2023-02-15T07:06:04;-0.40;99.90
39347;DHT22;26262;49.836;6.632;2023-02-15T07:08:37;-0.60;99.90
39347;DHT22;26262;49.836;6.632;2023-02-15T07:11:03;-0.60;99.90
39347;DHT22;26262;49.836;6.632;2023-02-15T07:13:47;-0.50;99.90
39347;DHT22;26262;49.836;6.632;2023-02-15T07:16:13;-0.50;99.90
39347;DHT22;26262;49.836;6.632;2023-02-15T07:18:39;-0.30;99.90
39347;DHT22;26262;49.836;6.632;2023-02-15T07:21:05;-0.20;99.90
39347;DHT22;26262;49.836;6.632;2023-02-15T07:23:36;-0.20;99.90
39347;DHT22;26262;49.836;6.632;2023-02-15T07:26:03;-0.10;99.90
39347;DHT22;26262;49.836;6.632;2023-02-15T07:28:28;0.10;99.90
39347;DHT22;26262;49.836;6.632;2023-02-15T07:30:54;0.10;99.90
39347;DHT22;26262;49.836;6.632;2023-02-15T07:33:20;0.20;99.90
39347;DHT22;26262;49.836;6.632;2023-02-15T07:38:14;0.10;99.90
39347;DHT22;26262;49.836;6.632;2023-02-15T07:40:40;0.20;99.90
39347;DHT22;26262;49.836;6.632;2023-02-15T07:43:05;0.10;99.90
39347;DHT22;26262;49.836;6.632;2023-02-15T07:45:31;0.20;99.90
39347;DHT22;26262;49.836;6.632;2023-02-15T07:47:56;0.20;99.90
39347;DHT22;26262;49.836;6.632;2023-02-15T07:50:22;0.00;99.90
39347;DHT22;26262;49.836;6.632;2023-02-15T07:52:47;0.00;99.90
39347;DHT22;26262;49.836;6.632;2023-02-15T07:55:13;0.00;99.90
39347;DHT22;26262;49.836;6.632;2023-02-15T07:57:43;0.00;99.90
39347;DHT22;26262;49.836;6.632;2023-02-15T08:00:10;-0.20;99.90
39347;DHT22;26262;49.836;6.632;2023-02-15T08:02:36;-0.30;99.90
39347;DHT22;26262;49.836;6.632;2023-02-15T08:05:02;-0.40;99.90
39347;DHT22;26262;49.836;6.632;2023-02-15T08:07:28;-0.30;99.90
39347;DHT22;26262;49.836;6.632;2023-02-15T08:09:53;-0.30;99.90
39347;DHT22;26262;49.836;6.632;2023-02-15T08:12:19;-0.40;99.90
39347;DHT22;26262;49.836;6.632;2023-02-15T08:14:45;-0.20;99.90
39347;DHT22;26262;49.836;6.632;2023-02-15T08:17:10;-0.10;99.90
39347;DHT22;26262;49.836;6.632;2023-02-15T08:19:36;0.10;99.90
39347;DHT22;26262;49.836;6.632;2023-02-15T08:22:04;0.00;99.90
39347;DHT22;26262;49.836;6.632;2023-02-15T08:24:34;0.20;99.90
39347;DHT22;26262;49.836;6.632;2023-02-15T08:27:02;0.30;99.90
39347;DHT22;26262;49.836;6.632;2023-02-15T08:29:29;0.30;99.90
39347;DHT22;26262;49.836;6.632;2023-02-15T08:31:58;0.20;99.90
39347;DHT22;26262;49.836;6.632;2023-02-15T08:34:24;0.10;99.90
39347;DHT22;26262;49.836;6.632;2023-02-15T08:36:50;0.20;99.90
39347;DHT22;26262;49.836;6.632;2023-02-15T08:39:16;0.10;99.90
39347;DHT22;26262;49.836;6.632;2023-02-15T08:41:44;0.00;99.90
39347;DHT22;26262;49.836;6.632;2023-02-15T08:44:10;-0.10;99.90
39347;DHT22;26262;49.836;6.632;2023-02-15T08:46:39;-0.10;99.90
39347;DHT22;26262;49.836;6.632;2023-02-15T08:49:05;-0.10;99.90
39347;DHT22;26262;49.836;6.632;2023-02-15T08:51:33;-0.10;99.90
39347;DHT22;26262;49.836;6.632;2023-02-15T08:54:02;0.10;99.90
39347;DHT22;26262;49.836;6.632;2023-02-15T08:56:31;0.10;99.90
39347;DHT22;26262;49.836;6.632;2023-02-15T08:58:57;0.10;99.90
39347;DHT22;26262;49.836;6.632;2023-02-15T09:01:25;0.10;99.90
39347;DHT22;26262;49.836;6.632;2023-02-15T09:03:51;0.30;99.90
39347;DHT22;26262;49.836;6.632;2023-02-15T09:06:20;0.20;99.90
39347;DHT22;26262;49.836;6.632;2023-02-15T09:08:47;0.30;99.90
39347;DHT22;26262;49.836;6.632;2023-02-15T09:11:40;0.20;99.90
39347;DHT22;26262;49.836;6.632;2023-02-15T09:14:08;0.20;99.90
39347;DHT22;26262;49.836;6.632;2023-02-15T09:16:36;0.20;99.90
39347;DHT22;26262;49.836;6.632;2023-02-15T09:19:02;0.30;99.90
39347;DHT22;26262;49.836;6.632;2023-02-15T09:21:30;0.50;99.90
39347;DHT22;26262;49.836;6.632;2023-02-15T09:23:58;0.70;99.90
39347;DHT22;26262;49.836;6.632;2023-02-15T09:26:25;0.80;99.90
39347;DHT22;26262;49.836;6.632;2023-02-15T09:28:54;1.00;99.90
39347;DHT22;26262;49.836;6.632;2023-02-15T09:31:27;1.00;99.90
39347;DHT22;26262;49.836;6.632;2023-02-15T09:33:54;1.20;99.90
39347;DHT22;26262;49.836;6.632;2023-02-15T09:38:50;1.40;99.90
39347;DHT22;26262;49.836;6.632;2023-02-15T09:41:54;1.40;99.90
39347;DHT22;26262;49.836;6.632;2023-02-15T09:44:38;1.40;99.90
39347;DHT22;26262;49.836;6.632;2023-02-15T09:47:13;1.40;99.90
39347;DHT22;26262;49.836;6.632;2023-02-15T09:50:02;1.60;99.90
39347;DHT22;26262;49.836;6.632;2023-02-15T09:52:53;1.30;99.90
39347;DHT22;26262;49.836;6.632;2023-02-15T09:55:51;1.50;99.90
39347;DHT22;26262;49.836;6.632;2023-02-15T10:04:23;1.60;99.90
39347;DHT22;26262;49.836;6.632;2023-02-15T10:07:01;1.70;99.90
39347;DHT22;26262;49.836;6.632;2023-02-15T10:12:47;1.90;99.90
39347;DHT22;26262;49.836;6.632;2023-02-15T10:15:52;2.00;99.90
39347;DHT22;26262;49.836;6.632;2023-02-15T10:21:24;2.30;99.90
39347;DHT22;26262;49.836;6.632;2023-02-15T10:24:04;2.50;99.90
39347;DHT22;26262;49.836;6.632;2023-02-15T10:26:49;2.20;99.90
39347;DHT22;26262;49.836;6.632;2023-02-15T10:31:51;2.60;99.90
39347;DHT22;26262;49.836;6.632;2023-02-15T10:34:19;2.80;99.90
39347;DHT22;26262;49.836;6.632;2023-02-15T10:52:59;2.70;99.90
39347;DHT22;26262;49.836;6.632;2023-02-15T11:01:06;4.90;99.90
39347;DHT22;26262;49.836;6.632;2023-02-15T11:03:46;6.30;99.90
39347;DHT22;26262;49.836;6.632;2023-02-15T11:06:18;7.80;99.90
39347;DHT22;26262;49.836;6.632;2023-02-15T11:08:59;8.60;99.90
39347;DHT22;26262;49.836;6.632;2023-02-15T11:13:58;10.40;99.90
39347;DHT22;26262;49.836;6.632;2023-02-15T11:16:29;10.50;99.90
39347;DHT22;26262;49.836;6.632;2023-02-15T11:19:01;11.50;99.90
39347;DHT22;26262;49.836;6.632;2023-02-15T11:21:39;12.00;99.90
39347;DHT22;26262;49.836;6.632;2023-02-15T11:24:12;10.70;99.90
39347;DHT22;26262;49.836;6.632;2023-02-15T11:26:54;11.00;99.90
39347;DHT22;26262;49.836;6.632;2023-02-15T11:29:50;11.30;99.90
39347;DHT22;26262;49.836;6.632;2023-02-15T11:32:37;11.70;99.90
39347;DHT22;26262;49.836;6.632;2023-02-15T11:37:47;12.30;99.90
39347;DHT22;26262;49.836;6.632;2023-02-15T11:40:29;12.50;99.90
39347;DHT22;26262;49.836;6.632;2023-02-15T11:42:58;12.40;99.90
39347;DHT22;26262;49.836;6.632;2023-02-15T11:47:54;13.20;99.90
39347;DHT22;26262;49.836;6.632;2023-02-15T11:50:23;13.50;99.90
39347;DHT22;26262;49.836;6.632;2023-02-15T11:52:51;14.00;99.30
39347;DHT22;26262;49.836;6.632;2023-02-15T11:55:21;13.10;98.30
39347;DHT22;26262;49.836;6.632;2023-02-15T12:00:42;12.40;99.90
39347;DHT22;26262;49.836;6.632;2023-02-15T12:03:21;12.20;99.90
39347;DHT22;26262;49.836;6.632;2023-02-15T12:05:53;11.30;99.90
39347;DHT22;26262;49.836;6.632;2023-02-15T12:08:20;11.90;99.90
39347;DHT22;26262;49.836;6.632;2023-02-15T12:10:56;10.80;99.90
39347;DHT22;26262;49.836;6.632;2023-02-15T12:13:22;10.90;99.90
39347;DHT22;26262;49.836;6.632;2023-02-15T12:15:51;10.80;99.90
39347;DHT22;26262;49.836;6.632;2023-02-15T12:18:20;10.50;99.90
39347;DHT22;26262;49.836;6.632;2023-02-15T12:20:47;11.00;99.90
39347;DHT22;26262;49.836;6.632;2023-02-15T12:23:15;10.70;99.90
39347;DHT22;26262;49.836;6.632;2023-02-15T12:25:43;11.40;99.90
39347;DHT22;26262;49.836;6.632;2023-02-15T12:28:27;11.30;99.90
39347;DHT22;26262;49.836;6.632;2023-02-15T12:30:56;10.80;99.90
39347;DHT22;26262;49.836;6.632;2023-02-15T12:33:32;11.20;99.90
39347;DHT22;26262;49.836;6.632;2023-02-15T12:36:11;11.40;99.90
39347;DHT22;26262;49.836;6.632;2023-02-15T12:38:37;11.20;99.90
39347;DHT22;26262;49.836;6.632;2023-02-15T12:41:24;11.60;99.90
39347;DHT22;26262;49.836;6.632;2023-02-15T12:44:04;11.80;99.90
39347;DHT22;26262;49.836;6.632;2023-02-15T12:46:30;12.70;99.90
39347;DHT22;26262;49.836;6.632;2023-02-15T12:49:18;13.20;99.90
39347;DHT22;26262;49.836;6.632;2023-02-15T12:51:52;13.60;99.90
39347;DHT22;26262;49.836;6.632;2023-02-15T12:54:34;13.80;98.20
39347;DHT22;26262;49.836;6.632;2023-02-15T13:00:02;13.40;98.10
39347;DHT22;26262;49.836;6.632;2023-02-15T13:02:46;14.50;97.90
39347;DHT22;26262;49.836;6.632;2023-02-15T13:05:26;14.00;96.90
39347;DHT22;26262;49.836;6.632;2023-02-15T13:08:03;13.90;98.40
39347;DHT22;26262;49.836;6.632;2023-02-15T13:10:39;13.60;97.90
39347;DHT22;26262;49.836;6.632;2023-02-15T13:13:18;13.80;96.90
39347;DHT22;26262;49.836;6.632;2023-02-15T13:15:49;13.60;97.10
39347;DHT22;26262;49.836;6.632;2023-02-15T13:18:19;13.90;98.10
39347;DHT22;26262;49.836;6.632;2023-02-15T13:20:50;13.70;97.50
39347;DHT22;26262;49.836;6.632;2023-02-15T13:23:27;13.80;97.60
39347;DHT22;26262;49.836;6.632;2023-02-15T13:25:58;13.70;98.10
39347;DHT22;26262;49.836;6.632;2023-02-15T13:28:34;14.50;98.10
39347;DHT22;26262;49.836;6.632;2023-02-15T13:31:02;14.00;96.50
39347;DHT22;26262;49.836;6.632;2023-02-15T13:33:36;13.90;98.20
39347;DHT22;26262;49.836;6.632;2023-02-15T13:36:09;14.60;96.80
39347;DHT22;26262;49.836;6.632;2023-02-15T13:38:50;13.90;96.60
39347;DHT22;26262;49.836;6.632;2023-02-15T13:41:28;13.80;96.90
39347;DHT22;26262;49.836;6.632;2023-02-15T13:44:15;14.10;96.20
39347;DHT22;26262;49.836;6.632;2023-02-15T13:52:26;13.40;97.00
39347;DHT22;26262;49.836;6.632;2023-02-15T13:55:03;13.30;97.90
39347;DHT22;26262;49.836;6.632;2023-02-15T14:09:21;14.40;95.00
39347;DHT22;26262;49.836;6.632;2023-02-15T14:15:04;13.80;96.80
39347;DHT22;26262;49.836;6.632;2023-02-15T14:20:27;13.40;98.20
39347;DHT22;26262;49.836;6.632;2023-02-15T14:26:10;13.10;99.50
39347;DHT22;26262;49.836;6.632;2023-02-15T14:28:54;13.50;99.10
39347;DHT22;26262;49.836;6.632;2023-02-15T14:31:31;13.20;99.20
39347;DHT22;26262;49.836;6.632;2023-02-15T14:33:59;12.60;99.80
39347;DHT22;26262;49.836;6.632;2023-02-15T14:36:25;11.90;99.90
39347;DHT22;26262;49.836;6.632;2023-02-15T14:42:10;12.80;99.90
39347;DHT22;26262;49.836;6.632;2023-02-15T14:44:39;13.20;99.90
39347;DHT22;26262;49.836;6.632;2023-02-15T14:47:19;12.50;99.90
39347;DHT22;26262;49.836;6.632;2023-02-15T14:49:45;12.90;99.90
39347;DHT22;26262;49.836;6.632;2023-02-15T14:52:11;12.20;99.90
39347;DHT22;26262;49.836;6.632;2023-02-15T14:59:50;11.40;99.90
39347;DHT22;26262;49.836;6.632;2023-02-15T15:02:40;11.30;99.90
39347;DHT22;26262;49.836;6.632;2023-02-15T15:12:55;10.70;99.90
39347;DHT22;26262;49.836;6.632;2023-02-15T15:18:06;10.50;99.90
39347;DHT22;26262;49.836;6.632;2023-02-15T15:20:48;10.30;99.90
39347;DHT22;26262;49.836;6.632;2023-02-15T15:25:51;9.40;99.90
39347;DHT22;26262;49.836;6.632;2023-02-15T15:47:29;7.90;99.90
39347;DHT22;26262;49.836;6.632;2023-02-15T15:49:58;8.10;99.90
39347;DHT22;26262;49.836;6.632;2023-02-15T15:52:25;7.90;99.90
39347;DHT22;26262;49.836;6.632;2023-02-15T15:55:03;7.90;99.90
39347;DHT22;26262;49.836;6.632;2023-02-15T15:57:37;7.30;99.90
39347;DHT22;26262;49.836;6.632;2023-02-15T16:00:04;7.30;99.90
39347;DHT22;26262;49.836;6.632;2023-02-15T16:02:31;7.50;99.90
39347;DHT22;26262;49.836;6.632;2023-02-15T16:05:06;7.70;99.90
39347;DHT22;26262;49.836;6.632;2023-02-15T16:07:32;7.30;99.90
39347;DHT22;26262;49.836;6.632;2023-02-15T16:09:59;7.30;99.90
39347;DHT22;26262;49.836;6.632;2023-02-15T16:12:30;7.20;99.90
39347;DHT22;26262;49.836;6.632;2023-02-15T16:14:56;7.20;99.90
39347;DHT22;26262;49.836;6.632;2023-02-15T16:17:30;7.30;99.90
39347;DHT22;26262;49.836;6.632;2023-02-15T16:20:11;7.00;99.90
39347;DHT22;26262;49.836;6.632;2023-02-15T16:22:39;7.00;99.90
39347;DHT22;26262;49.836;6.632;2023-02-15T16:25:30;7.10;99.90
39347;DHT22;26262;49.836;6.632;2023-02-15T16:27:56;6.80;99.90
39347;DHT22;26262;49.836;6.632;2023-02-15T16:30:30;6.90;99.90
39347;DHT22;26262;49.836;6.632;2023-02-15T16:33:11;6.50;99.90
39347;DHT22;26262;49.836;6.632;2023-02-15T16:35:39;6.70;99.90
39347;DHT22;26262;49.836;6.632;2023-02-15T16:38:10;6.70;99.90
39347;DHT22;26262;49.836;6.632;2023-02-15T16:40:47;6.50;99.90
39347;DHT22;26262;49.836;6.632;2023-02-15T16:43:24;6.60;99.90
39347;DHT22;26262;49.836;6.632;2023-02-15T16:45:53;6.50;99.90
39347;DHT22;26262;49.836;6.632;2023-02-15T16:48:23;6.20;99.90
39347;DHT22;26262;49.836;6.632;2023-02-15T16:50:53;6.30;99.90
39347;DHT22;26262;49.836;6.632;2023-02-15T16:53:23;6.10;99.90
39347;DHT22;26262;49.836;6.632;2023-02-15T16:55:55;6.20;99.90
39347;DHT22;26262;49.836;6.632;2023-02-15T16:58:31;5.80;99.90
39347;DHT22;26262;49.836;6.632;2023-02-15T17:00:58;5.60;99.90
39347;DHT22;26262;49.836;6.632;2023-02-15T17:03:25;5.70;99.90
39347;DHT22;26262;49.836;6.632;2023-02-15T17:05:59;5.60;99.90
39347;DHT22;26262;49.836;6.632;2023-02-15T17:08:43;5.70;99.90
39347;DHT22;26262;49.836;6.632;2023-02-15T17:13:37;5.30;99.90
39347;DHT22;26262;49.836;6.632;2023-02-15T17:18:48;5.00;99.90
39347;DHT22;26262;49.836;6.632;2023-02-15T17:21:25;5.20;99.90
39347;DHT22;26262;49.836;6.632;2023-02-15T17:23:57;5.00;99.90
39347;DHT22;26262;49.836;6.632;2023-02-15T17:26:31;5.00;99.90
39347;DHT22;26262;49.836;6.632;2023-02-15T17:28:59;5.20;99.90
39347;DHT22;26262;49.836;6.632;2023-02-15T17:31:30;4.70;99.90
39347;DHT22;26262;49.836;6.632;2023-02-15T17:33:58;4.80;99.90
39347;DHT22;26262;49.836;6.632;2023-02-15T17:36:26;4.70;99.90
39347;DHT22;26262;49.836;6.632;2023-02-15T17:41:23;4.70;99.90
39347;DHT22;26262;49.836;6.632;2023-02-15T17:43:48;4.80;99.90
39347;DHT22;26262;49.836;6.632;2023-02-15T17:46:14;4.80;99.90
39347;DHT22;26262;49.836;6.632;2023-02-15T17:48:46;4.80;99.90
39347;DHT22;26262;49.836;6.632;2023-02-15T17:51:13;4.80;99.90
39347;DHT22;26262;49.836;6.632;2023-02-15T17:53:39;4.70;99.90
39347;DHT22;26262;49.836;6.632;2023-02-15T17:56:05;4.50;99.90
39347;DHT22;26262;49.836;6.632;2023-02-15T17:58:37;4.50;99.90
39347;DHT22;26262;49.836;6.632;2023-02-15T18:01:06;4.50;99.90
39347;DHT22;26262;49.836;6.632;2023-02-15T18:03:54;4.40;99.90
39347;DHT22;26262;49.836;6.632;2023-02-15T18:06:40;3.90;99.90
39347;DHT22;26262;49.836;6.632;2023-02-15T18:09:25;4.00;99.90
39347;DHT22;26262;49.836;6.632;2023-02-15T18:12:19;3.70;99.90
39347;DHT22;26262;49.836;6.632;2023-02-15T18:14:45;3.60;99.90
39347;DHT22;26262;49.836;6.632;2023-02-15T18:17:13;3.60;99.90
39347;DHT22;26262;49.836;6.632;2023-02-15T18:19:40;3.80;99.90
39347;DHT22;26262;49.836;6.632;2023-02-15T18:22:15;3.70;99.90
39347;DHT22;26262;49.836;6.632;2023-02-15T18:24:42;3.80;99.90
39347;DHT22;26262;49.836;6.632;2023-02-15T18:27:11;3.90;99.90
39347;DHT22;26262;49.836;6.632;2023-02-15T18:29:37;3.80;99.90
39347;DHT22;26262;49.836;6.632;2023-02-15T18:32:03;3.80;99.90
39347;DHT22;26262;49.836;6.632;2023-02-15T18:34:35;3.80;99.90
39347;DHT22;26262;49.836;6.632;2023-02-15T18:37:04;3.80;99.90